Time;durP1;ratioP1;P1;durP2;ratioP2;P2;SDS_P1;SDS_P2;PMS_P1;PMS_P2;Temp;Humidity;BMP_temperature;BMP_pressure;BME280_temperature;BME280_humidity;BME280_pressure;Samples;Min_cycle;Max_cycle;Signal;HPM_P1;HPM_P2
2022/12/15 00:39:26;;;;;;;45.60;25.73;;;;;;;;;;6281152;28;20048;-78
2022/12/15 00:42:28;;;;;;;45.80;26.50;;;;;;;;;;6278162;28;20370;-78
2022/12/15 00:48:46;;;;;;;47.33;26.23;;;;;;;;;;6283231;28;20068;-75
2022/12/15 01:21:48;;;;;;;52.60;28.27;;;;;;;;;;6288379;28;20049;-74
2022/12/15 01:24:50;;;;;;;51.13;29.45;;;;;;;;;;6285796;28;20103;-75
2022/12/15 01:27:52;;;;;;;53.10;29.00;;;;;;;;;;6286734;28;20053;-75
2022/12/15 01:30:54;;;;;;;52.85;29.13;;;;;;;;;;6290932;28;20336;-75
2022/12/15 01:33:57;;;;;;;52.42;30.05;;;;;;;;;;6286217;28;20126;-74
2022/12/15 01:36:58;;;;;;;53.20;30.77;;;;;;;;;;6287380;28;20057;-74
2022/12/15 01:43:22;;;;;;;50.17;27.95;;;;;;;;;;6284502;28;20060;-74
2022/12/15 01:46:25;;;;;;;55.10;29.02;;;;;;;;;;6290554;28;20264;-74
2022/12/15 01:49:29;;;;;;;55.13;29.88;;;;;;;;;;6285329;28;20059;-75
2022/12/15 01:52:31;;;;;;;53.80;28.95;;;;;;;;;;6285786;28;20057;-74
2022/12/15 01:55:33;;;;;;;56.75;30.30;;;;;;;;;;6284458;28;20045;-74
2022/12/15 01:58:35;;;;;;;62.28;30.77;;;;;;;;;;6286332;28;20098;-74
2022/12/15 02:01:38;;;;;;;50.40;29.05;;;;;;;;;;6285921;28;20324;-75
2022/12/15 02:04:41;;;;;;;56.35;29.40;;;;;;;;;;6286449;28;20052;-74
2022/12/15 02:07:43;;;;;;;56.60;29.85;;;;;;;;;;6287737;28;20061;-74
2022/12/15 02:10:58;;;;;;;57.42;30.80;;;;;;;;;;6285523;28;20383;-74
2022/12/15 02:14:01;;;;;;;54.40;29.92;;;;;;;;;;6287915;28;20252;-75
2022/12/15 02:17:17;;;;;;;54.00;31.45;;;;;;;;;;6290731;28;20057;-74
2022/12/15 02:20:47;;;;;;;56.75;30.88;;;;;;;;;;6288253;28;20049;-75
2022/12/15 02:24:26;;;;;;;52.72;30.25;;;;;;;;;;6289500;28;20055;-74
2022/12/15 02:27:48;;;;;;;54.70;30.08;;;;;;;;;;6288748;28;20045;-74
2022/12/15 02:34:13;;;;;;;52.13;27.95;;;;;;;;;;6291256;28;20058;-75
2022/12/15 02:37:17;;;;;;;48.88;27.65;;;;;;;;;;6291364;28;20048;-75
2022/12/15 02:40:19;;;;;;;46.38;27.33;;;;;;;;;;6291155;28;20059;-74
2022/12/15 02:43:21;;;;;;;48.13;24.85;;;;;;;;;;6284802;28;20048;-74
2022/12/15 02:46:30;;;;;;;46.17;25.75;;;;;;;;;;6288172;28;20363;-75
2022/12/15 02:49:38;;;;;;;50.85;28.33;;;;;;;;;;6286100;28;20048;-75
2022/12/15 02:52:48;;;;;;;50.78;27.08;;;;;;;;;;6288364;28;20242;-74
2022/12/15 02:55:55;;;;;;;50.50;28.08;;;;;;;;;;6285502;28;20268;-74
2022/12/15 02:59:03;;;;;;;49.58;29.15;;;;;;;;;;6283641;28;20320;-75
2022/12/15 03:02:07;;;;;;;46.47;28.08;;;;;;;;;;6284011;28;20094;-75
2022/12/15 03:05:09;;;;;;;51.88;27.77;;;;;;;;;;6284999;28;20356;-75
2022/12/15 03:08:11;;;;;;;55.72;29.08;;;;;;;;;;6283780;28;20351;-74
2022/12/15 03:11:13;;;;;;;45.53;26.45;;;;;;;;;;6282368;28;20056;-75
2022/12/15 03:14:14;;;;;;;52.28;26.92;;;;;;;;;;6283170;28;20087;-75
2022/12/15 03:17:17;;;;;;;50.45;28.95;;;;;;;;;;6287383;28;20045;-74
2022/12/15 03:20:19;;;;;;;59.22;28.73;;;;;;;;;;6286589;28;20082;-74
2022/12/15 03:23:21;;;;;;;50.70;26.75;;;;;;;;;;6287095;28;20044;-74
2022/12/15 03:26:23;;;;;;;51.00;28.73;;;;;;;;;;6289723;28;20053;-74
2022/12/15 03:29:25;;;;;;;48.88;27.90;;;;;;;;;;6287280;28;20061;-78
2022/12/15 03:32:28;;;;;;;50.28;26.52;;;;;;;;;;6280683;28;20056;-75
2022/12/15 03:35:30;;;;;;;48.33;27.60;;;;;;;;;;6283307;28;20084;-74
2022/12/15 03:38:32;;;;;;;50.55;26.65;;;;;;;;;;6285985;28;20138;-75
2022/12/15 03:41:33;;;;;;;50.00;26.55;;;;;;;;;;6284095;28;20056;-74
2022/12/15 03:44:35;;;;;;;45.63;26.58;;;;;;;;;;6286961;28;20249;-75
2022/12/15 03:47:41;;;;;;;42.70;25.08;;;;;;;;;;6284634;28;20098;-74
2022/12/15 03:50:44;;;;;;;45.85;26.95;;;;;;;;;;6285607;28;20477;-74
2022/12/15 03:53:46;;;;;;;52.20;27.25;;;;;;;;;;6282527;28;20326;-74
2022/12/15 03:56:48;;;;;;;48.22;26.60;;;;;;;;;;6287395;28;20052;-75
2022/12/15 03:59:50;;;;;;;46.63;26.20;;;;;;;;;;6284180;28;20053;-75
2022/12/15 04:02:54;;;;;;;45.75;26.52;;;;;;;;;;6282801;28;20060;-75
2022/12/15 04:05:55;;;;;;;45.05;26.30;;;;;;;;;;6284946;28;20076;-74
2022/12/15 04:08:57;;;;;;;44.53;25.77;;;;;;;;;;6281973;28;20093;-75
2022/12/15 04:11:58;;;;;;;43.92;25.25;;;;;;;;;;6285401;28;20049;-76
2022/12/15 04:15:00;;;;;;;43.90;25.80;;;;;;;;;;6281985;28;20186;-74
2022/12/15 04:18:09;;;;;;;45.05;25.23;;;;;;;;;;6284097;28;20053;-74
2022/12/15 04:21:10;;;;;;;51.25;25.92;;;;;;;;;;6281257;28;20061;-76
2022/12/15 05:34:05;;;;;;;36.05;22.63;;;;;;;;;;6291188;28;20049;-75
2022/12/15 05:37:07;;;;;;;44.83;22.98;;;;;;;;;;6290398;28;20290;-74
2022/12/15 05:40:11;;;;;;;40.45;22.90;;;;;;;;;;6287297;28;20048;-78
2022/12/15 05:43:12;;;;;;;38.83;21.95;;;;;;;;;;6285773;28;20060;-77
2022/12/15 05:46:14;;;;;;;39.80;23.35;;;;;;;;;;6285752;28;20328;-77
2022/12/15 05:49:18;;;;;;;39.53;22.58;;;;;;;;;;6284946;28;20060;-77
2022/12/15 05:52:19;;;;;;;43.88;22.75;;;;;;;;;;6283303;28;20095;-77
2022/12/15 05:55:22;;;;;;;45.10;23.00;;;;;;;;;;6286656;28;20126;-77
2022/12/15 05:58:24;;;;;;;44.17;23.45;;;;;;;;;;6288025;28;20055;-77
2022/12/15 06:01:26;;;;;;;39.58;23.70;;;;;;;;;;6283751;28;20065;-77
2022/12/15 06:04:28;;;;;;;36.03;21.55;;;;;;;;;;6283902;28;20094;-76
2022/12/15 06:07:30;;;;;;;38.38;23.63;;;;;;;;;;6284676;28;20047;-79
2022/12/15 06:10:33;;;;;;;35.80;22.67;;;;;;;;;;6283229;28;20057;-78
2022/12/15 06:13:34;;;;;;;39.35;23.25;;;;;;;;;;6286064;28;20185;-77
2022/12/15 06:16:36;;;;;;;37.72;23.42;;;;;;;;;;6283509;28;20227;-78
2022/12/15 06:19:38;;;;;;;40.30;23.73;;;;;;;;;;6284290;28;20045;-77
2022/12/15 06:22:40;;;;;;;40.85;22.63;;;;;;;;;;6285059;28;20051;-80
2022/12/15 06:25:43;;;;;;;42.10;22.33;;;;;;;;;;6285874;28;20307;-77
2022/12/15 06:28:45;;;;;;;44.78;24.02;;;;;;;;;;6284539;28;20063;-77
2022/12/15 06:31:47;;;;;;;40.25;23.55;;;;;;;;;;6288326;28;20119;-77
2022/12/15 06:34:49;;;;;;;44.22;26.25;;;;;;;;;;6285384;28;20594;-76
2022/12/15 06:37:50;;;;;;;46.83;25.73;;;;;;;;;;6281504;28;20075;-76
2022/12/15 06:40:56;;;;;;;44.10;26.30;;;;;;;;;;6286134;28;20053;-81
2022/12/15 06:43:58;;;;;;;48.03;27.10;;;;;;;;;;6284388;28;20048;-76
2022/12/15 06:47:00;;;;;;;48.88;26.02;;;;;;;;;;6284796;28;20053;-76
2022/12/15 06:50:02;;;;;;;47.80;27.90;;;;;;;;;;6282768;28;20063;-76
2022/12/15 06:53:04;;;;;;;48.63;26.52;;;;;;;;;;6284342;28;20240;-77
2022/12/15 06:56:13;;;;;;;47.38;27.65;;;;;;;;;;6282494;28;20127;-76
2022/12/15 06:59:15;;;;;;;54.63;27.80;;;;;;;;;;6285063;28;20111;-77
2022/12/15 07:02:17;;;;;;;49.22;27.48;;;;;;;;;;6284685;28;20052;-78
2022/12/15 07:05:20;;;;;;;49.17;28.40;;;;;;;;;;6283879;28;20086;-80
2022/12/15 07:08:22;;;;;;;49.38;28.83;;;;;;;;;;6285408;28;20356;-76
2022/12/15 07:11:25;;;;;;;50.22;27.27;;;;;;;;;;6283313;28;20048;-79
2022/12/15 07:14:27;;;;;;;47.30;26.77;;;;;;;;;;6282508;28;20064;-81
2022/12/15 07:17:29;;;;;;;50.58;27.92;;;;;;;;;;6284422;28;20059;-75
2022/12/15 07:20:30;;;;;;;50.13;27.88;;;;;;;;;;6281494;28;20045;-81
2022/12/15 07:23:33;;;;;;;51.67;27.55;;;;;;;;;;6286510;28;20063;-78
2022/12/15 07:26:36;;;;;;;47.53;27.42;;;;;;;;;;6288832;28;20094;-78
2022/12/15 07:29:37;;;;;;;45.03;26.55;;;;;;;;;;6280361;28;20067;-78
2022/12/15 07:32:39;;;;;;;48.17;27.48;;;;;;;;;;6285745;28;20045;-78
2022/12/15 07:35:41;;;;;;;49.03;27.48;;;;;;;;;;6282112;28;20057;-76
2022/12/15 07:38:44;;;;;;;51.60;28.25;;;;;;;;;;6287659;28;20063;-78
2022/12/15 07:41:47;;;;;;;53.85;27.55;;;;;;;;;;6283663;28;20041;-79
2022/12/15 07:44:48;;;;;;;53.58;28.80;;;;;;;;;;6282334;28;20044;-78
2022/12/15 07:47:52;;;;;;;52.53;27.48;;;;;;;;;;6283135;28;20060;-78
2022/12/15 07:50:56;;;;;;;51.90;28.03;;;;;;;;;;6287028;28;20072;-80
2022/12/15 07:53:58;;;;;;;;;;;;;;;;;;6284139;28;20054;-76
2022/12/15 07:57:01;;;;;;;;;;;;;;;;;;6285165;28;19974;-78
2022/12/15 08:00:04;;;;;;;;;;;;;;;;;;6286017;28;19917;-78
2022/12/15 08:03:06;;;;;;;;;;;;;;;;;;6286527;28;19916;-79
2022/12/15 08:06:08;;;;;;;;;;;;;;;;;;6288473;28;21974;-78
2022/12/15 08:09:11;;;;;;;;;;;;;;;;;;6290411;28;19916;-78
2022/12/15 08:12:13;;;;;;;;;;;;;;;;;;6291796;28;20223;-78
2022/12/15 08:15:15;;;;;;;;;;;;;;;;;;6290247;28;19924;-76
2022/12/15 08:18:16;;;;;;;;;;;;;;;;;;6288460;28;19924;-78
2022/12/15 08:21:18;;;;;;;;;;;;;;;;;;6287833;28;19924;-79
2022/12/15 08:24:21;;;;;;;;;;;;;;;;;;6288459;28;20207;-78
2022/12/15 08:27:26;;;;;;;;;;;;;;;;;;6289452;28;19928;-76
2022/12/15 08:30:27;;;;;;;;;;;;;;;;;;6288226;28;19924;-76
2022/12/15 08:33:28;;;;;;;;;;;;;;;;;;6291205;28;19925;-76
2022/12/15 08:36:30;;;;;;;;;;;;;;;;;;6288593;28;19946;-77
2022/12/15 08:39:32;;;;;;;;;;;;;;;;;;6287247;28;19946;-78
2022/12/15 08:42:35;;;;;;;;;;;;;;;;;;6287288;28;19925;-78
2022/12/15 08:45:36;;;;;;;;;;;;;;;;;;6287110;28;19971;-80
2022/12/15 08:48:38;;;;;;;;;;;;;;;;;;6289276;28;20104;-77
2022/12/15 08:51:39;;;;;;;;;;;;;;;;;;6289878;28;19931;-78
2022/12/15 08:54:41;;;;;;;;;;;;;;;;;;6287948;28;19924;-78
2022/12/15 08:57:43;;;;;;;;;;;;;;;;;;6287935;28;19916;-78
2022/12/15 09:00:45;;;;;;;;;;;;;;;;;;6285632;28;20418;-77
2022/12/15 09:03:46;;;;;;;;;;;;;;;;;;6292968;28;19939;-78
2022/12/15 09:06:48;;;;;;;;;;;;;;;;;;6295779;28;19916;-77
2022/12/15 09:09:49;;;;;;;;;;;;;;;;;;6290800;28;19929;-75
2022/12/15 09:12:52;;;;;;;;;;;;;;;;;;6292486;28;20755;-78
2022/12/15 09:15:57;;;;;;;;;;;;;;;;;;6291412;28;19947;-78
2022/12/15 09:18:58;;;;;;;;;;;;;;;;;;6293434;28;19916;-78
2022/12/15 09:22:01;;;;;;;;;;;;;;;;;;6295247;28;19970;-75
2022/12/15 09:25:02;;;;;;;;;;;;;;;;;;6294517;28;19936;-77
2022/12/15 09:28:05;;;;;;;;;;;;;;;;;;6295325;28;19924;-77
2022/12/15 09:31:07;;;;;;;;;;;;;;;;;;6291284;28;19924;-77
2022/12/15 09:34:11;;;;;;;;;;;;;;;;;;6293303;28;19916;-78
2022/12/15 09:37:13;;;;;;;;;;;;;;;;;;6294107;28;19994;-78
2022/12/15 09:40:14;;;;;;;;;;;;;;;;;;6290237;28;19917;-77
2022/12/15 09:43:19;;;;;;;;;;;;;;;;;;6292180;28;19916;-77
2022/12/15 09:46:27;;;;;;;;;;;;;;;;;;6293059;28;19923;-77
2022/12/15 09:49:34;;;;;;;;;;;;;;;;;;6289679;28;20670;-77
2022/12/15 09:52:39;;;;;;;;;;;;;;;;;;6293138;28;19947;-74
2022/12/15 09:55:41;;;;;;;;;;;;;;;;;;6295377;28;19917;-77
2022/12/15 09:58:46;;;;;;;;;;;;;;;;;;6294857;28;19979;-78
2022/12/15 10:01:49;;;;;;;;;;;;;;;;;;6288311;28;19951;-78
2022/12/15 10:04:52;;;;;;;;;;;;;;;;;;6292460;28;19916;-76
2022/12/15 10:07:54;;;;;;;;;;;;;;;;;;6288831;28;20185;-77
2022/12/15 10:10:56;;;;;;;;;;;;;;;;;;6288400;28;20824;-79
2022/12/15 10:13:59;;;;;;;;;;;;;;;;;;6293547;28;19925;-79
2022/12/15 10:17:03;;;;;;;;;;;;;;;;;;6293594;28;19924;-77
2022/12/15 10:20:05;;;;;;;;;;;;;;;;;;6293580;28;19916;-78
2022/12/15 10:23:11;;;;;;;;;;;;;;;;;;6289759;28;19916;-79
2022/12/15 10:26:15;;;;;;;;;;;;;;;;;;6292778;28;19929;-81
2022/12/15 10:29:21;;;;;;;;;;;;;;;;;;6288719;28;20200;-79
2022/12/15 10:32:23;;;;;;;;;;;;;;;;;;6291907;28;20109;-83
2022/12/15 10:35:26;;;;;;;;;;;;;;;;;;6292681;28;19924;-78
2022/12/15 10:38:31;;;;;;;;;;;;;;;;;;6293559;28;19928;-79
2022/12/15 10:41:33;;;;;;;;;;;;;;;;;;6290308;28;19951;-80
2022/12/15 10:44:37;;;;;;;;;;;;;;;;;;6293085;28;19920;-80
2022/12/15 10:47:39;;;;;;;;;;;;;;;;;;6289951;28;19943;-78
2022/12/15 10:50:41;;;;;;;;;;;;;;;;;;6292624;28;19917;-78
2022/12/15 10:53:43;;;;;;;;;;;;;;;;;;6291288;28;20201;-78
2022/12/15 10:56:47;;;;;;;;;;;;;;;;;;6292437;28;19928;-78
2022/12/15 10:59:51;;;;;;;;;;;;;;;;;;6293854;28;19959;-77
2022/12/15 11:02:53;;;;;;;;;;;;;;;;;;6286884;28;19922;-77
2022/12/15 11:05:55;;;;;;;;;;;;;;;;;;6290933;28;19992;-78
2022/12/15 11:08:57;;;;;;;;;;;;;;;;;;6288138;28;20251;-78
2022/12/15 11:15:36;;;;;;;;;;;;;;;;;;6287660;28;19925;-78
2022/12/15 11:18:40;;;;;;;;;;;;;;;;;;6290065;28;19947;-78
2022/12/15 11:21:42;;;;;;;;;;;;;;;;;;6288522;28;19979;-76
2022/12/15 11:24:45;;;;;;;;;;;;;;;;;;6284823;28;19925;-77
2022/12/15 11:27:46;;;;;;;;;;;;;;;;;;6287991;28;19924;-77
2022/12/15 11:30:50;;;;;;;;;;;;;;;;;;6285599;28;20128;-77
2022/12/15 11:33:53;;;;;;;;;;;;;;;;;;6287414;28;19916;-77
2022/12/15 11:37:02;;;;;;;;;;;;;;;;;;6286385;28;19921;-77
2022/12/15 11:40:13;;;;;;;;;;;;;;;;;;6286007;28;19940;-78
2022/12/15 11:43:38;;;;;;;;;;;;;;;;;;6284586;28;19923;-77
2022/12/15 11:46:40;;;;;;;;;;;;;;;;;;6266426;28;19930;-76
2022/12/15 11:50:06;;;;;;;;;;;;;;;;;;6282004;28;19983;-75
2022/12/15 11:53:17;;;;;;;;;;;;;;;;;;6259510;28;19925;-76
2022/12/15 11:56:22;;;;;;;;;;;;;;;;;;6285407;28;19916;-84
2022/12/15 11:59:32;;;;;;;;;;;;;;;;;;6285048;28;20147;-81
2022/12/15 12:02:38;;;;;;;;;;;;;;;;;;6282835;28;19924;-79
2022/12/15 12:05:44;;;;;;;;;;;;;;;;;;6285579;28;19929;-81
2022/12/15 12:08:49;;;;;;;;;;;;;;;;;;6285661;28;19917;-77
2022/12/15 12:11:53;;;;;;;;;;;;;;;;;;6288767;28;19924;-77
2022/12/15 12:14:58;;;;;;;;;;;;;;;;;;6284304;28;19963;-78
2022/12/15 12:18:00;;;;;;;;;;;;;;;;;;6281108;28;19947;-78
2022/12/15 12:21:03;;;;;;;;;;;;;;;;;;6286599;28;19916;-77
2022/12/15 12:24:09;;;;;;;;;;;;;;;;;;6282712;28;19928;-77
2022/12/15 12:27:12;;;;;;;;;;;;;;;;;;6284280;28;19937;-78
2022/12/15 12:30:14;;;;;;;;;;;;;;;;;;6284201;28;21102;-77
2022/12/15 12:33:18;;;;;;;;;;;;;;;;;;6282011;28;20203;-77
2022/12/15 12:36:19;;;;;;;;;;;;;;;;;;6286363;28;20144;-77
2022/12/15 12:39:22;;;;;;;;;;;;;;;;;;6284158;28;20104;-77
2022/12/15 12:42:25;;;;;;;;;;;;;;;;;;6284015;28;19932;-76
2022/12/15 12:45:28;;;;;;;;;;;;;;;;;;6286183;28;20008;-78
2022/12/15 12:48:30;;;;;;;;;;;;;;;;;;6283688;28;19932;-78
2022/12/15 12:51:32;;;;;;;;;;;;;;;;;;6286915;28;19916;-78
2022/12/15 12:54:42;;;;;;;;;;;;;;;;;;6289920;28;19924;-78
2022/12/15 12:57:43;;;;;;;;;;;;;;;;;;6288860;28;19931;-77
2022/12/15 13:00:48;;;;;;;;;;;;;;;;;;6288425;28;19929;-77
2022/12/15 13:04:02;;;;;;;;;;;;;;;;;;6289678;28;19928;-77
2022/12/15 13:07:05;;;;;;;;;;;;;;;;;;6285846;28;19928;-77
2022/12/15 13:10:17;;;;;;;;;;;;;;;;;;6284856;28;19925;-77
2022/12/15 13:13:33;;;;;;;;;;;;;;;;;;6287873;28;20307;-79
2022/12/15 13:16:34;;;;;;;;;;;;;;;;;;6285939;28;19928;-77
2022/12/15 13:19:55;;;;;;;;;;;;;;;;;;6286622;28;20197;-77
2022/12/15 13:22:57;;;;;;;;;;;;;;;;;;6288842;28;19940;-77
2022/12/15 13:26:16;;;;;;;;;;;;;;;;;;6289315;28;19931;-77
2022/12/15 13:29:17;;;;;;;;;;;;;;;;;;6287468;28;19931;-77
2022/12/15 13:32:25;;;;;;;;;;;;;;;;;;6288523;28;19916;-78
2022/12/15 13:35:29;;;;;;;;;;;;;;;;;;6286359;28;19920;-78
2022/12/15 13:38:51;;;;;;;;;;;;;;;;;;6289713;28;20220;-77
2022/12/15 13:42:07;;;;;;;;;;;;;;;;;;6286718;28;19930;-77
2022/12/15 13:45:19;;;;;;;;;;;;;;;;;;6287103;28;19929;-77
2022/12/15 13:48:26;;;;;;;;;;;;;;;;;;6295166;28;19916;-79
2022/12/15 13:51:32;;;;;;;;;;;;;;;;;;6288173;28;20194;-76
2022/12/15 13:54:34;;;;;;;;;;;;;;;;;;6286861;28;20415;-76
2022/12/15 13:57:39;;;;;;;;;;;;;;;;;;6287161;28;19920;-76
2022/12/15 14:00:48;;;;;;;;;;;;;;;;;;6285595;28;19925;-78
2022/12/15 14:04:06;;;;;;;;;;;;;;;;;;6285583;28;19996;-79
2022/12/15 14:07:07;;;;;;;;;;;;;;;;;;6290552;28;19916;-76
2022/12/15 14:10:15;;;;;;;;;;;;;;;;;;6287986;28;19920;-78
2022/12/15 14:13:18;;;;;;;;;;;;;;;;;;6284910;28;20039;-76
2022/12/15 14:16:21;;;;;;;;;;;;;;;;;;6287982;28;19923;-76
2022/12/15 14:19:23;;;;;;;;;;;;;;;;;;6289234;28;19925;-76
2022/12/15 14:22:25;;;;;;;;;;;;;;;;;;6289188;28;20074;-76
2022/12/15 14:25:28;;;;;;;;;;;;;;;;;;6285980;28;19929;-76
2022/12/15 14:28:30;;;;;;;;;;;;;;;;;;6286120;28;19990;-76
2022/12/15 14:31:33;;;;;;;;;;;;;;;;;;6286244;28;20135;-76
2022/12/15 14:34:35;;;;;;;;;;;;;;;;;;6286026;28;19924;-76
2022/12/15 14:37:37;;;;;;;;;;;;;;;;;;6284498;28;19923;-76
2022/12/15 14:40:38;;;;;;;;;;;;;;;;;;6288525;28;19925;-76
2022/12/15 14:43:40;;;;;;;;;;;;;;;;;;6281975;28;19956;-77
2022/12/15 14:46:45;;;;;;;;;;;;;;;;;;6291825;28;19924;-74
2022/12/15 14:49:48;;;;;;;;;;;;;;;;;;6288787;28;20216;-75
2022/12/15 14:52:51;;;;;;;;;;;;;;;;;;6285830;28;19959;-75
2022/12/15 14:55:53;;;;;;;;;;;;;;;;;;6284925;28;19923;-77
2022/12/15 14:58:55;;;;;;;;;;;;;;;;;;6285215;28;19931;-75
2022/12/15 15:01:59;;;;;;;;;;;;;;;;;;6287425;28;19917;-76
2022/12/15 15:05:02;;;;;;;;;;;;;;;;;;6285228;28;19923;-76
2022/12/15 15:08:04;;;;;;;;;;;;;;;;;;6284872;28;19947;-75
2022/12/15 15:11:17;;;;;;;;;;;;;;;;;;6285088;28;19920;-75
2022/12/15 15:14:21;;;;;;;;;;;;;;;;;;6288074;28;20192;-75
2022/12/15 15:17:24;;;;;;;;;;;;;;;;;;6284705;28;19925;-75
2022/12/15 15:20:26;;;;;;;;;;;;;;;;;;6286552;28;19931;-77
2022/12/15 15:23:28;;;;;;;;;;;;;;;;;;6285059;28;20228;-75
2022/12/15 15:26:29;;;;;;;;;;;;;;;;;;6285424;28;19917;-74
2022/12/15 15:29:33;;;;;;;;;;;;;;;;;;6282830;28;20023;-73
2022/12/15 15:32:48;;;;;;;;;;;;;;;;;;6285297;28;19920;-75
2022/12/15 15:35:50;;;;;;;;;;;;;;;;;;6284332;28;19935;-72
2022/12/15 15:38:52;;;;;;;;;;;;;;;;;;6286611;28;19978;-72
2022/12/15 15:41:53;;;;;;;;;;;;;;;;;;6285398;28;20003;-74
2022/12/15 15:44:54;;;;;;;;;;;;;;;;;;6282790;28;19943;-74
2022/12/15 15:47:57;;;;;;;;;;;;;;;;;;6285794;28;19924;-73
2022/12/15 15:50:59;;;;;;;;;;;;;;;;;;6281438;28;19924;-73
2022/12/15 15:54:01;;;;;;;;;;;;;;;;;;6283521;28;20104;-75
2022/12/15 15:57:03;;;;;;;;;;;;;;;;;;6282481;28;19924;-73
2022/12/15 16:00:08;;;;;;;;;;;;;;;;;;6284384;28;19944;-74
2022/12/15 16:03:10;;;;;;;;;;;;;;;;;;6289077;28;19991;-73
2022/12/15 16:06:14;;;;;;;;;;;;;;;;;;6285139;28;20216;-74
2022/12/15 16:09:16;;;;;;;;;;;;;;;;;;6282759;28;19962;-74
2022/12/15 16:12:23;;;;;;;;;;;;;;;;;;6285513;28;19916;-74
2022/12/15 16:15:26;;;;;;;;;;;;;;;;;;6281801;28;19916;-76
2022/12/15 16:18:29;;;;;;;;;;;;;;;;;;6285101;28;19990;-76
2022/12/15 16:21:30;;;;;;;;;;;;;;;;;;6284007;28;20008;-75
2022/12/15 16:24:32;;;;;;;;;;;;;;;;;;6286904;28;19917;-74
2022/12/15 16:27:33;;;;;;;;;;;;;;;;;;6289228;28;19925;-74
2022/12/15 16:30:35;;;;;;;;;;;;;;;;;;6287717;28;19924;-74
2022/12/15 16:33:37;;;;;;;;;;;;;;;;;;6288619;28;20004;-74
2022/12/15 16:36:39;;;;;;;;;;;;;;;;;;6293090;28;19928;-73
2022/12/15 16:39:41;;;;;;;;;;;;;;;;;;6289294;28;19925;-73
2022/12/15 16:42:42;;;;;;;;;;;;;;;;;;6290314;28;19932;-73
2022/12/15 16:45:44;;;;;;;;;;;;;;;;;;6287064;28;20077;-76
2022/12/15 16:48:47;;;;;;;;;;;;;;;;;;6285627;28;19928;-76
2022/12/15 16:51:49;;;;;;;;;;;;;;;;;;6293265;28;19954;-76
2022/12/15 16:54:51;;;;;;;;;;;;;;;;;;6287832;28;19991;-76
2022/12/15 16:57:53;;;;;;;;;;;;;;;;;;6290488;28;19916;-75
2022/12/15 17:00:54;;;;;;;;;;;;;;;;;;6286275;28;20216;-73
2022/12/15 17:03:58;;;;;;;;;;;;;;;;;;6287667;28;19946;-76
2022/12/15 17:07:00;;;;;;;;;;;;;;;;;;6288290;28;19954;-75
2022/12/15 17:10:01;;;;;;;;;;;;;;;;;;6288537;28;19924;-75
2022/12/15 17:13:04;;;;;;;;;;;;;;;;;;6287749;28;19916;-76
2022/12/15 17:16:07;;;;;;;;;;;;;;;;;;6289551;28;20194;-75
2022/12/15 17:19:10;;;;;;;;;;;;;;;;;;6288170;28;19932;-76
2022/12/15 17:22:12;;;;;;;;;;;;;;;;;;6288067;28;21568;-75
2022/12/15 17:25:17;;;;;;;;;;;;;;;;;;6290041;28;20105;-76
2022/12/15 17:28:20;;;;;;;;;;;;;;;;;;6287260;28;19923;-74
2022/12/15 17:31:23;;;;;;;;;;;;;;;;;;6287044;28;19971;-73
2022/12/15 17:34:28;;;;;;;;;;;;;;;;;;6289135;28;19959;-76
2022/12/15 17:37:30;;;;;;;;;;;;;;;;;;6272999;28;19983;-75
2022/12/15 17:40:33;;;;;;;;;;;;;;;;;;6282621;28;19925;-74
2022/12/15 17:43:35;;;;;;;;;;;;;;;;;;6284898;28;19917;-73
2022/12/15 17:46:36;;;;;;;;;;;;;;;;;;6287521;28;20610;-76
2022/12/15 17:49:39;;;;;;;;;;;;;;;;;;6286457;28;20002;-74
2022/12/15 17:52:41;;;;;;;;;;;;;;;;;;6288855;28;19916;-73
2022/12/15 17:55:43;;;;;;;;;;;;;;;;;;6285756;28;19962;-73
2022/12/15 17:58:45;;;;;;;;;;;;;;;;;;6283876;28;19920;-74
2022/12/15 18:01:48;;;;;;;;;;;;;;;;;;6291012;28;19917;-74
2022/12/15 18:04:52;;;;;;;;;;;;;;;;;;6282946;28;19916;-73
2022/12/15 18:07:54;;;;;;;;;;;;;;;;;;6285610;28;19916;-73
2022/12/15 18:10:56;;;;;;;;;;;;;;;;;;6284457;28;19925;-74
2022/12/15 18:13:58;;;;;;;;;;;;;;;;;;6288139;28;19925;-77
2022/12/15 18:16:59;;;;;;;;;;;;;;;;;;6285868;28;19917;-76
2022/12/15 18:20:06;;;;;;;;;;;;;;;;;;6286215;28;19931;-76
2022/12/15 18:23:12;;;;;;;;;;;;;;;;;;6289704;28;20129;-76
2022/12/15 18:26:14;;;;;;;;;;;;;;;;;;6286667;28;19963;-74
2022/12/15 18:29:17;;;;;;;;;;;;;;;;;;6289574;28;20141;-73
2022/12/15 18:32:19;;;;;;;;;;;;;;;;;;6286690;28;19951;-75
2022/12/15 18:35:22;;;;;;;;;;;;;;;;;;6287690;28;19917;-73
2022/12/15 18:38:24;;;;;;;;;;;;;;;;;;6283496;28;19934;-73
2022/12/15 18:41:26;;;;;;;;;;;;;;;;;;6286131;28;19916;-73
2022/12/15 18:44:29;;;;;;;;;;;;;;;;;;6285887;28;19929;-74
2022/12/15 18:47:32;;;;;;;;;;;;;;;;;;6285852;28;19917;-73
2022/12/15 18:50:35;;;;;;;;;;;;;;;;;;6291376;28;19920;-71
2022/12/15 18:53:39;;;;;;;;;;;;;;;;;;6287490;28;19916;-74
2022/12/15 18:56:40;;;;;;;;;;;;;;;;;;6284687;28;19925;-75
2022/12/15 18:59:43;;;;;;;;;;;;;;;;;;6291481;28;19939;-73
2022/12/15 19:02:46;;;;;;;;;;;;;;;;;;6286795;28;20143;-74
2022/12/15 19:05:49;;;;;;;;;;;;;;;;;;6290984;28;20220;-74
2022/12/15 19:08:51;;;;;;;;;;;;;;;;;;6287341;28;19924;-74
2022/12/15 19:12:16;;;;;;;;;;;;;;;;;;6291129;28;19923;-76
2022/12/15 19:15:18;;;;;;;;;;;;;;;;;;6290550;28;19921;-76
2022/12/15 19:25:16;;;;;;;;;;;;;;;;;;6220013;28;19926;-75
2022/12/15 19:28:18;;;;;;;;;;;;;;;;;;6218780;28;20094;-77
2022/12/15 19:31:20;;;;;;;;;;;;;;;;;;6222261;28;19924;-74
2022/12/15 19:34:21;;;;;;;;;;;;;;;;;;6216833;28;19925;-74
2022/12/15 19:37:25;;;;;;;;;;;;;;;;;;6218897;28;20218;-74
2022/12/15 19:40:29;;;;;;;;;;;;;;;;;;6219786;28;19925;-75
2022/12/15 19:43:30;;;;;;;;;;;;;;;;;;6218695;28;19949;-74
2022/12/15 19:46:32;;;;;;;;;;;;;;;;;;6217697;28;19926;-75
2022/12/15 19:49:33;;;;;;;;;;;;;;;;;;6217713;28;19925;-75
2022/12/15 19:52:37;;;;;;;;;;;;;;;;;;6217490;28;20188;-74
2022/12/15 19:55:38;;;;;;;;;;;;;;;;;;6250097;28;19917;-72
2022/12/15 19:58:40;;;;;;;;;;;;;;;;;;6289520;28;19929;-73
2022/12/15 20:01:42;;;;;;;;;;;;;;;;;;6284620;28;19978;-75
2022/12/15 20:04:43;;;;;;;;;;;;;;;;;;6285640;28;20177;-73
2022/12/15 20:07:46;;;;;;;;;;;;;;;;;;6288113;28;19986;-73
2022/12/15 20:10:48;;;;;;;;;;;;;;;;;;6291593;28;19939;-73
2022/12/15 20:13:49;;;;;;;;;;;;;;;;;;6290979;28;19931;-72
2022/12/15 20:16:51;;;;;;;;;;;;;;;;;;6291697;28;19916;-73
2022/12/15 20:19:52;;;;;;;;;;;;;;;;;;6294669;28;19951;-73
2022/12/15 20:22:56;;;;;;;;;;;;;;;;;;6293441;28;19923;-72
2022/12/15 20:25:57;;;;;;;;;;;;;;;;;;6293831;28;20119;-73
2022/12/15 20:28:59;;;;;;;;;;;;;;;;;;6294346;28;19924;-72
2022/12/15 20:32:00;;;;;;;;;;;;;;;;;;6292963;28;19916;-73
2022/12/15 20:35:02;;;;;;;;;;;;;;;;;;6286616;28;20270;-72
2022/12/15 20:38:14;;;;;;;;;;;;;;;;;;6290962;28;19924;-73
2022/12/15 20:41:16;;;;;;;;;;;;;;;;;;6288964;28;19924;-75
2022/12/15 20:44:18;;;;;;;;;;;;;;;;;;6292793;28;19929;-75
2022/12/15 20:47:20;;;;;;;;;;;;;;;;;;6290911;28;19923;-75
2022/12/15 20:50:22;;;;;;;;;;;;;;;;;;6294542;28;20074;-75
2022/12/15 20:53:26;;;;;;;;;;;;;;;;;;6282296;28;19939;-75
2022/12/15 20:56:27;;;;;;;;;;;;;;;;;;6284132;28;19923;-74
2022/12/15 20:59:29;;;;;;;;;;;;;;;;;;6289453;28;19917;-75
2022/12/15 21:02:30;;;;;;;;;;;;;;;;;;6291392;28;19925;-75
2022/12/15 21:05:32;;;;;;;;;;;;;;;;;;6290795;28;19925;-75
2022/12/15 21:08:35;;;;;;;;;;;;;;;;;;6289161;28;19970;-75
2022/12/15 21:11:40;;;;;;;;;;;;;;;;;;6290998;28;19916;-73
2022/12/15 21:14:45;;;;;;;;;;;;;;;;;;6290886;28;19987;-76
2022/12/15 21:17:47;;;;;;;;;;;;;;;;;;6295074;28;19916;-72
2022/12/15 21:20:50;;;;;;;;;;;;;;;;;;6291826;28;20175;-74
2022/12/15 21:23:53;;;;;;;;;;;;;;;;;;6294097;28;19924;-73
2022/12/15 21:26:55;;;;;;;;;;;;;;;;;;6289469;28;19916;-73
2022/12/15 21:29:56;;;;;;;;;;;;;;;;;;6294783;28;19925;-73
2022/12/15 21:32:58;;;;;;;;;;;;;;;;;;6290368;28;20200;-73
2022/12/15 21:36:00;;;;;;;;;;;;;;;;;;6295405;28;19916;-73
2022/12/15 21:39:03;;;;;;;;;;;;;;;;;;6292925;28;19989;-73
2022/12/15 21:42:07;;;;;;;;;;;;;;;;;;6293400;28;19917;-73
2022/12/15 21:45:12;;;;;;;;;;;;;;;;;;6295099;28;19916;-73
2022/12/15 21:51:34;;;;;;;;;;;;;;;;;;6288715;28;19916;-73
2022/12/15 21:54:37;;;;;;;;;;;;;;;;;;6285774;28;19979;-73
2022/12/15 21:57:39;;;;;;;;;;;;;;;;;;6287064;28;19916;-74
2022/12/15 22:00:41;;;;;;;;;;;;;;;;;;6290009;28;19940;-74
2022/12/15 22:03:44;;;;;;;;;;;;;;;;;;6288788;28;20209;-74
2022/12/15 22:06:45;;;;;;;;;;;;;;;;;;6286242;28;20050;-74
2022/12/15 22:09:49;;;;;;;;;;;;;;;;;;6288784;28;19975;-74
2022/12/15 22:12:51;;;;;;;;;;;;;;;;;;6284593;28;19930;-73
2022/12/15 22:15:52;;;;;;;;;;;;;;;;;;6290447;28;20215;-76
2022/12/15 22:18:54;;;;;;;;;;;;;;;;;;6287326;28;19962;-74
2022/12/15 22:21:56;;;;;;;;;;;;;;;;;;6287374;28;19931;-76
2022/12/15 22:24:59;;;;;;;;;;;;;;;;;;6286443;28;19946;-74
2022/12/15 22:28:00;;;;;;;;;;;;;;;;;;6288637;28;20223;-74
2022/12/15 22:31:02;;;;;;;;;;;;;;;;;;6286440;28;19966;-76
2022/12/15 22:34:06;;;;;;;;;;;;;;;;;;6292445;28;20096;-77
2022/12/15 22:37:09;;;;;;;;;;;;;;;;;;6285307;28;20208;-77